createdAt,value
2019-03-01T16:56:18.753Z,8.70
2019-03-01T16:58:49.711Z,8.60
2019-03-01T17:01:20.113Z,8.60
2019-03-01T17:03:52.784Z,8.50
2019-03-01T17:06:21.797Z,8.60
2019-03-01T17:08:53.169Z,8.50
2019-03-01T17:11:23.732Z,8.50
2019-03-01T17:13:54.860Z,8.40
2019-03-01T17:16:24.849Z,8.40
2019-03-01T17:18:54.766Z,8.40
2019-03-01T17:21:24.750Z,8.30
2019-03-01T17:23:54.776Z,8.40
2019-03-01T17:26:26.226Z,8.30
2019-03-01T17:28:56.401Z,8.40
2019-03-01T17:31:26.924Z,8.40
2019-03-01T17:33:58.153Z,8.30
2019-03-01T17:36:28.064Z,8.30
2019-03-01T17:38:58.057Z,8.20
2019-03-01T17:41:28.090Z,8.20
2019-03-01T17:43:58.162Z,8.30
2019-03-01T17:46:29.777Z,8.10
2019-03-01T17:48:59.780Z,8.00
2019-03-01T17:51:29.701Z,8.10
2019-03-01T17:53:59.728Z,7.90
2019-03-01T17:56:29.832Z,7.90
2019-03-01T17:58:59.879Z,7.80
2019-03-01T18:01:30.021Z,7.80
2019-03-01T18:04:01.919Z,7.80
2019-03-01T18:06:31.846Z,7.80
2019-03-01T18:09:02.043Z,7.70
2019-03-01T18:11:35.343Z,7.70
2019-03-01T18:14:05.699Z,7.80
2019-03-01T18:16:35.869Z,7.60
2019-03-01T18:19:07.117Z,7.70
2019-03-01T18:21:37.318Z,7.70
2019-03-01T18:24:07.358Z,7.80
2019-03-01T18:26:39.980Z,7.70
2019-03-01T18:29:09.058Z,7.60
2019-03-01T18:31:39.134Z,7.70
2019-03-01T18:34:09.045Z,7.70
2019-03-01T18:36:39.045Z,7.70
2019-03-01T18:39:11.085Z,7.50
2019-03-01T18:41:41.222Z,7.50
2019-03-01T18:44:11.202Z,7.60
2019-03-01T18:46:44.641Z,7.60
2019-03-01T18:49:16.710Z,7.70
2019-03-01T18:51:46.158Z,7.60
2019-03-01T18:54:16.391Z,7.50
2019-03-01T18:56:46.503Z,7.50
2019-03-01T18:59:16.484Z,7.40
2019-03-01T19:01:47.566Z,7.40
2019-03-01T19:04:29.106Z,7.50
2019-03-01T19:06:51.402Z,7.40
2019-03-01T19:09:20.993Z,7.50
2019-03-01T19:11:50.971Z,7.50
2019-03-01T19:14:20.895Z,7.40
2019-03-01T19:16:52.291Z,7.40
2019-03-01T19:19:23.963Z,7.40
2019-03-01T19:21:55.674Z,7.40
2019-03-01T19:24:25.645Z,7.40
2019-03-01T19:26:55.588Z,7.40
2019-03-01T19:29:25.581Z,7.40
2019-03-01T19:31:55.517Z,7.40
2019-03-01T19:34:25.511Z,7.40
2019-03-01T19:36:55.527Z,7.30
2019-03-01T19:39:25.617Z,7.40
2019-03-01T19:41:58.160Z,7.40
2019-03-01T19:44:29.039Z,7.30
2019-03-01T19:46:59.710Z,7.30
2019-03-01T19:49:29.693Z,7.30
2019-03-01T19:51:59.627Z,7.30
2019-03-01T19:54:32.364Z,7.30
2019-03-01T19:57:01.584Z,7.30
2019-03-01T19:59:33.581Z,7.30
2019-03-01T20:02:03.579Z,7.30
2019-03-01T20:04:33.655Z,7.30
2019-03-01T20:07:05.159Z,7.20
2019-03-01T20:09:36.613Z,7.20
2019-03-01T20:12:06.964Z,7.10
2019-03-01T20:14:38.095Z,7.20
2019-03-01T20:17:08.203Z,7.20
2019-03-01T20:19:38.206Z,7.20
2019-03-01T20:22:10.395Z,7.20
2019-03-01T20:24:40.445Z,7.20
2019-03-01T20:27:11.462Z,7.30
2019-03-01T20:29:41.388Z,7.20
2019-03-01T20:32:15.790Z,7.10
2019-03-01T20:34:44.701Z,7.20
2019-03-01T20:37:15.389Z,7.20
2019-03-01T20:39:47.473Z,7.30
2019-03-01T20:42:22.091Z,7.20
2019-03-01T20:44:50.285Z,7.10
2019-03-01T20:47:22.995Z,7.10
2019-03-01T20:49:54.843Z,7.20
2019-03-01T20:52:25.180Z,7.20
2019-03-01T20:54:57.806Z,7.20
2019-03-01T20:57:28.310Z,7.20
2019-03-01T20:59:59.149Z,7.20
2019-03-01T21:02:29.493Z,7.20
2019-03-01T21:04:59.764Z,7.20
2019-03-01T21:07:31.632Z,7.20
2019-03-01T21:10:03.974Z,7.20
2019-03-01T21:12:36.647Z,7.20
2019-03-01T21:15:08.796Z,7.20
2019-03-01T21:17:39.157Z,7.20
2019-03-01T21:20:19.852Z,7.20
2019-03-01T21:22:51.090Z,7.20
2019-03-01T21:25:25.435Z,7.20
2019-03-01T21:27:57.690Z,7.20
2019-03-01T21:30:36.008Z,7.30
2019-03-01T21:33:06.136Z,7.20
2019-03-01T21:35:36.253Z,7.20
2019-03-01T21:38:10.548Z,7.20
